sensor_id;sensor_type;location;lat;lon;timestamp;temperature;humidity
3790;DHT22;1910;49.042;9.028;2023-05-29T00:00:14;13.10;99.90
3790;DHT22;1910;49.042;9.028;2023-05-29T00:02:44;13.00;99.90
3790;DHT22;1910;49.042;9.028;2023-05-29T00:05:11;13.00;99.90
3790;DHT22;1910;49.042;9.028;2023-05-29T00:07:37;13.00;99.90
3790;DHT22;1910;49.042;9.028;2023-05-29T00:10:03;13.00;99.90
3790;DHT22;1910;49.042;9.028;2023-05-29T00:12:29;13.00;99.90
3790;DHT22;1910;49.042;9.028;2023-05-29T00:14:55;12.90;99.90
3790;DHT22;1910;49.042;9.028;2023-05-29T00:17:20;12.90;99.90
3790;DHT22;1910;49.042;9.028;2023-05-29T00:19:46;12.90;99.90
3790;DHT22;1910;49.042;9.028;2023-05-29T00:22:12;12.80;99.90
3790;DHT22;1910;49.042;9.028;2023-05-29T00:24:37;12.80;99.90
3790;DHT22;1910;49.042;9.028;2023-05-29T00:27:03;12.80;99.90
3790;DHT22;1910;49.042;9.028;2023-05-29T00:29:29;12.70;99.90
3790;DHT22;1910;49.042;9.028;2023-05-29T00:31:56;12.60;99.90
3790;DHT22;1910;49.042;9.028;2023-05-29T00:34:22;12.60;99.90
3790;DHT22;1910;49.042;9.028;2023-05-29T00:36:49;12.70;99.90
3790;DHT22;1910;49.042;9.028;2023-05-29T00:39:14;12.60;99.90
3790;DHT22;1910;49.042;9.028;2023-05-29T00:41:40;12.60;99.90
3790;DHT22;1910;49.042;9.028;2023-05-29T00:44:06;12.50;99.90
3790;DHT22;1910;49.042;9.028;2023-05-29T00:46:32;12.30;99.90
3790;DHT22;1910;49.042;9.028;2023-05-29T00:48:59;12.30;99.90
3790;DHT22;1910;49.042;9.028;2023-05-29T00:51:27;13.30;99.90
3790;DHT22;1910;49.042;9.028;2023-05-29T00:53:54;12.30;99.90
3790;DHT22;1910;49.042;9.028;2023-05-29T00:56:20;12.20;99.90
3790;DHT22;1910;49.042;9.028;2023-05-29T00:58:48;12.10;99.90
3790;DHT22;1910;49.042;9.028;2023-05-29T01:01:16;12.10;99.90
3790;DHT22;1910;49.042;9.028;2023-05-29T01:03:43;12.20;99.90
3790;DHT22;1910;49.042;9.028;2023-05-29T01:06:09;12.20;99.90
3790;DHT22;1910;49.042;9.028;2023-05-29T01:11:51;12.10;99.90
3790;DHT22;1910;49.042;9.028;2023-05-29T01:13:57;12.00;99.90
3790;DHT22;1910;49.042;9.028;2023-05-29T01:16:51;11.90;99.90
3790;DHT22;1910;49.042;9.028;2023-05-29T01:19:33;11.90;99.90
3790;DHT22;1910;49.042;9.028;2023-05-29T01:24:49;11.80;99.90
3790;DHT22;1910;49.042;9.028;2023-05-29T01:27:18;11.80;99.90
3790;DHT22;1910;49.042;9.028;2023-05-29T01:29:46;11.80;99.90
3790;DHT22;1910;49.042;9.028;2023-05-29T01:32:13;11.70;99.90
3790;DHT22;1910;49.042;9.028;2023-05-29T01:34:38;11.70;99.90
3790;DHT22;1910;49.042;9.028;2023-05-29T01:37:04;11.80;99.90
3790;DHT22;1910;49.042;9.028;2023-05-29T01:39:31;11.90;99.90
3790;DHT22;1910;49.042;9.028;2023-05-29T01:41:58;11.90;99.90
3790;DHT22;1910;49.042;9.028;2023-05-29T01:44:25;11.80;99.90
3790;DHT22;1910;49.042;9.028;2023-05-29T01:46:50;11.80;99.90
3790;DHT22;1910;49.042;9.028;2023-05-29T01:49:17;11.70;99.90
3790;DHT22;1910;49.042;9.028;2023-05-29T01:51:43;11.80;99.90
3790;DHT22;1910;49.042;9.028;2023-05-29T01:54:09;11.80;99.90
3790;DHT22;1910;49.042;9.028;2023-05-29T01:56:35;11.70;99.90
3790;DHT22;1910;49.042;9.028;2023-05-29T01:59:02;11.60;99.90
3790;DHT22;1910;49.042;9.028;2023-05-29T02:01:28;11.60;99.90
3790;DHT22;1910;49.042;9.028;2023-05-29T02:03:54;11.60;99.90
3790;DHT22;1910;49.042;9.028;2023-05-29T02:06:20;11.60;99.90
3790;DHT22;1910;49.042;9.028;2023-05-29T02:08:46;11.60;99.90
3790;DHT22;1910;49.042;9.028;2023-05-29T02:11:12;11.60;99.90
3790;DHT22;1910;49.042;9.028;2023-05-29T02:13:38;11.50;99.90
3790;DHT22;1910;49.042;9.028;2023-05-29T02:16:03;11.50;99.90
3790;DHT22;1910;49.042;9.028;2023-05-29T02:18:29;11.40;99.90
3790;DHT22;1910;49.042;9.028;2023-05-29T02:20:54;11.40;99.90
3790;DHT22;1910;49.042;9.028;2023-05-29T02:23:21;11.40;99.90
3790;DHT22;1910;49.042;9.028;2023-05-29T02:25:46;11.40;99.90
3790;DHT22;1910;49.042;9.028;2023-05-29T02:28:12;11.40;99.90
3790;DHT22;1910;49.042;9.028;2023-05-29T02:30:37;11.30;99.90
3790;DHT22;1910;49.042;9.028;2023-05-29T02:33:03;11.20;99.90
3790;DHT22;1910;49.042;9.028;2023-05-29T02:35:29;11.10;99.90
3790;DHT22;1910;49.042;9.028;2023-05-29T02:37:54;11.00;99.90
3790;DHT22;1910;49.042;9.028;2023-05-29T02:40:20;11.00;99.90
3790;DHT22;1910;49.042;9.028;2023-05-29T02:42:47;10.90;99.90
3790;DHT22;1910;49.042;9.028;2023-05-29T02:45:12;10.90;99.90
3790;DHT22;1910;49.042;9.028;2023-05-29T02:47:38;10.90;99.90
3790;DHT22;1910;49.042;9.028;2023-05-29T02:50:04;10.90;99.90
3790;DHT22;1910;49.042;9.028;2023-05-29T02:52:31;10.80;99.90
3790;DHT22;1910;49.042;9.028;2023-05-29T02:54:57;10.80;99.90
3790;DHT22;1910;49.042;9.028;2023-05-29T02:57:24;10.70;99.90
3790;DHT22;1910;49.042;9.028;2023-05-29T02:59:49;10.70;99.90
3790;DHT22;1910;49.042;9.028;2023-05-29T03:02:15;10.80;99.90
3790;DHT22;1910;49.042;9.028;2023-05-29T03:04:40;10.70;99.90
3790;DHT22;1910;49.042;9.028;2023-05-29T03:07:06;10.70;99.90
3790;DHT22;1910;49.042;9.028;2023-05-29T03:09:32;10.70;99.90
3790;DHT22;1910;49.042;9.028;2023-05-29T03:11:57;10.60;99.90
3790;DHT22;1910;49.042;9.028;2023-05-29T03:14:23;10.60;99.90
3790;DHT22;1910;49.042;9.028;2023-05-29T03:16:49;10.60;99.90
3790;DHT22;1910;49.042;9.028;2023-05-29T03:19:15;10.60;99.90
3790;DHT22;1910;49.042;9.028;2023-05-29T03:21:41;10.50;99.90
3790;DHT22;1910;49.042;9.028;2023-05-29T03:26:32;10.40;99.90
3790;DHT22;1910;49.042;9.028;2023-05-29T03:33:50;10.50;99.90
3790;DHT22;1910;49.042;9.028;2023-05-29T03:41:08;10.60;99.90
3790;DHT22;1910;49.042;9.028;2023-05-29T03:43:34;10.70;99.90
3790;DHT22;1910;49.042;9.028;2023-05-29T03:46:00;10.80;99.90
3790;DHT22;1910;49.042;9.028;2023-05-29T03:48:25;10.90;99.90
3790;DHT22;1910;49.042;9.028;2023-05-29T03:50:50;10.70;99.90
3790;DHT22;1910;49.042;9.028;2023-05-29T03:53:16;11.00;99.90
3790;DHT22;1910;49.042;9.028;2023-05-29T03:55:42;11.10;99.90
3790;DHT22;1910;49.042;9.028;2023-05-29T03:58:07;11.20;99.90
3790;DHT22;1910;49.042;9.028;2023-05-29T04:00:33;11.20;99.90
3790;DHT22;1910;49.042;9.028;2023-05-29T04:05:24;11.30;99.90
3790;DHT22;1910;49.042;9.028;2023-05-29T04:10:16;11.50;99.90
3790;DHT22;1910;49.042;9.028;2023-05-29T04:12:42;11.40;99.90
3790;DHT22;1910;49.042;9.028;2023-05-29T04:15:08;11.50;99.90
3790;DHT22;1910;49.042;9.028;2023-05-29T04:17:34;11.80;99.90
3790;DHT22;1910;49.042;9.028;2023-05-29T04:19:59;12.70;99.90
3790;DHT22;1910;49.042;9.028;2023-05-29T04:22:31;13.90;99.90
3790;DHT22;1910;49.042;9.028;2023-05-29T04:24:56;15.50;99.90
3790;DHT22;1910;49.042;9.028;2023-05-29T04:27:22;17.10;99.90
3790;DHT22;1910;49.042;9.028;2023-05-29T04:34:39;20.50;99.90
3790;DHT22;1910;49.042;9.028;2023-05-29T04:37:05;21.60;99.90
3790;DHT22;1910;49.042;9.028;2023-05-29T04:54:11;26.00;81.40
3790;DHT22;1910;49.042;9.028;2023-05-29T05:11:22;32.70;49.60
3790;DHT22;1910;49.042;9.028;2023-05-29T05:40:36;37.60;35.30
3790;DHT22;1910;49.042;9.028;2023-05-29T06:00:04;39.70;29.30
3790;DHT22;1910;49.042;9.028;2023-05-29T06:36:45;34.00;32.90
3790;DHT22;1910;49.042;9.028;2023-05-29T06:44:02;34.20;33.40
3790;DHT22;1910;49.042;9.028;2023-05-29T06:46:28;33.10;34.90
3790;DHT22;1910;49.042;9.028;2023-05-29T06:53:45;33.90;34.00
3790;DHT22;1910;49.042;9.028;2023-05-29T06:56:11;33.60;35.00
3790;DHT22;1910;49.042;9.028;2023-05-29T07:13:16;35.50;32.50
3790;DHT22;1910;49.042;9.028;2023-05-29T07:20:36;36.20;32.00
3790;DHT22;1910;49.042;9.028;2023-05-29T07:59:40;36.50;31.80
3790;DHT22;1910;49.042;9.028;2023-05-29T08:07:00;35.80;32.60
3790;DHT22;1910;49.042;9.028;2023-05-29T08:41:11;34.50;33.90
3790;DHT22;1910;49.042;9.028;2023-05-29T08:43:41;34.40;34.00
3790;DHT22;1910;49.042;9.028;2023-05-29T08:46:07;34.40;35.00
3790;DHT22;1910;49.042;9.028;2023-05-29T08:48:35;34.90;34.00
3790;DHT22;1910;49.042;9.028;2023-05-29T08:51:02;35.70;33.70
3790;DHT22;1910;49.042;9.028;2023-05-29T08:55:57;34.00;34.50
3790;DHT22;1910;49.042;9.028;2023-05-29T09:15:31;31.90;38.70
3790;DHT22;1910;49.042;9.028;2023-05-29T09:17:57;31.70;37.20
3790;DHT22;1910;49.042;9.028;2023-05-29T09:20:24;32.50;37.00
3790;DHT22;1910;49.042;9.028;2023-05-29T09:22:55;33.30;38.00
3790;DHT22;1910;49.042;9.028;2023-05-29T09:25:23;32.60;37.60
3790;DHT22;1910;49.042;9.028;2023-05-29T09:28:06;32.90;38.20
3790;DHT22;1910;49.042;9.028;2023-05-29T09:33:10;31.80;37.70
3790;DHT22;1910;49.042;9.028;2023-05-29T09:40:32;32.60;37.90
3790;DHT22;1910;49.042;9.028;2023-05-29T09:43:05;32.70;38.10
3790;DHT22;1910;49.042;9.028;2023-05-29T09:50:28;32.40;37.60
3790;DHT22;1910;49.042;9.028;2023-05-29T09:52:56;32.60;37.60
3790;DHT22;1910;49.042;9.028;2023-05-29T09:55:24;32.40;37.80
3790;DHT22;1910;49.042;9.028;2023-05-29T09:57:53;33.10;37.20
3790;DHT22;1910;49.042;9.028;2023-05-29T10:02:48;33.00;36.80
3790;DHT22;1910;49.042;9.028;2023-05-29T10:07:44;32.60;37.20
3790;DHT22;1910;49.042;9.028;2023-05-29T10:12:44;32.20;37.40
3790;DHT22;1910;49.042;9.028;2023-05-29T10:15:15;32.10;37.90
3790;DHT22;1910;49.042;9.028;2023-05-29T10:17:53;33.00;38.20
3790;DHT22;1910;49.042;9.028;2023-05-29T10:20:22;31.20;38.10
3790;DHT22;1910;49.042;9.028;2023-05-29T10:22:50;30.50;38.70
3790;DHT22;1910;49.042;9.028;2023-05-29T10:25:19;30.50;39.50
3790;DHT22;1910;49.042;9.028;2023-05-29T10:27:48;31.00;39.80
3790;DHT22;1910;49.042;9.028;2023-05-29T10:30:25;30.90;38.90
3790;DHT22;1910;49.042;9.028;2023-05-29T10:38:14;27.10;43.20
3790;DHT22;1910;49.042;9.028;2023-05-29T10:40:42;26.80;44.30
3790;DHT22;1910;49.042;9.028;2023-05-29T10:50:41;25.90;46.10
3790;DHT22;1910;49.042;9.028;2023-05-29T10:53:15;25.50;46.30
3790;DHT22;1910;49.042;9.028;2023-05-29T10:55:42;25.40;46.10
3790;DHT22;1910;49.042;9.028;2023-05-29T10:58:10;25.10;47.60
3790;DHT22;1910;49.042;9.028;2023-05-29T11:00:41;26.30;48.90
3790;DHT22;1910;49.042;9.028;2023-05-29T11:06:06;25.10;46.40
3790;DHT22;1910;49.042;9.028;2023-05-29T11:08:46;25.00;45.60
3790;DHT22;1910;49.042;9.028;2023-05-29T11:13:39;24.80;48.10
3790;DHT22;1910;49.042;9.028;2023-05-29T11:16:14;26.00;47.50
3790;DHT22;1910;49.042;9.028;2023-05-29T11:18:45;24.90;45.30
3790;DHT22;1910;49.042;9.028;2023-05-29T11:24:21;24.80;46.30
3790;DHT22;1910;49.042;9.028;2023-05-29T11:26:47;25.10;45.80
3790;DHT22;1910;49.042;9.028;2023-05-29T11:29:13;25.30;46.90
3790;DHT22;1910;49.042;9.028;2023-05-29T11:31:40;26.30;44.60
3790;DHT22;1910;49.042;9.028;2023-05-29T11:34:11;25.30;43.90
3790;DHT22;1910;49.042;9.028;2023-05-29T11:36:39;25.50;47.10
3790;DHT22;1910;49.042;9.028;2023-05-29T11:39:05;25.50;44.10
3790;DHT22;1910;49.042;9.028;2023-05-29T11:41:30;25.80;44.00
3790;DHT22;1910;49.042;9.028;2023-05-29T11:44:01;25.70;42.40
3790;DHT22;1910;49.042;9.028;2023-05-29T11:51:22;25.40;42.80
3790;DHT22;1910;49.042;9.028;2023-05-29T11:53:48;25.30;43.80
3790;DHT22;1910;49.042;9.028;2023-05-29T11:58:40;25.30;38.50
3790;DHT22;1910;49.042;9.028;2023-05-29T12:01:07;25.30;39.20
3790;DHT22;1910;49.042;9.028;2023-05-29T12:03:39;25.30;39.50
3790;DHT22;1910;49.042;9.028;2023-05-29T12:06:05;25.50;40.80
3790;DHT22;1910;49.042;9.028;2023-05-29T12:15:53;25.70;40.60
3790;DHT22;1910;49.042;9.028;2023-05-29T12:20:45;25.70;40.20
3790;DHT22;1910;49.042;9.028;2023-05-29T12:23:11;25.70;40.50
3790;DHT22;1910;49.042;9.028;2023-05-29T12:28:04;25.80;40.00
3790;DHT22;1910;49.042;9.028;2023-05-29T12:35:24;25.80;40.50
3790;DHT22;1910;49.042;9.028;2023-05-29T12:37:57;26.50;41.50
3790;DHT22;1910;49.042;9.028;2023-05-29T12:42:55;25.80;41.10
3790;DHT22;1910;49.042;9.028;2023-05-29T12:45:25;25.50;40.50
3790;DHT22;1910;49.042;9.028;2023-05-29T12:48:01;25.40;40.20
3790;DHT22;1910;49.042;9.028;2023-05-29T12:50:32;25.50;40.80
3790;DHT22;1910;49.042;9.028;2023-05-29T12:53:02;25.50;39.80
3790;DHT22;1910;49.042;9.028;2023-05-29T12:55:29;25.80;42.20
3790;DHT22;1910;49.042;9.028;2023-05-29T12:57:56;25.80;42.80
3790;DHT22;1910;49.042;9.028;2023-05-29T13:00:22;25.80;39.60
3790;DHT22;1910;49.042;9.028;2023-05-29T13:02:48;25.80;40.10
3790;DHT22;1910;49.042;9.028;2023-05-29T13:05:15;26.50;42.10
3790;DHT22;1910;49.042;9.028;2023-05-29T13:07:42;25.80;42.60
3790;DHT22;1910;49.042;9.028;2023-05-29T13:10:08;25.80;43.10
3790;DHT22;1910;49.042;9.028;2023-05-29T13:12:34;25.60;42.90
3790;DHT22;1910;49.042;9.028;2023-05-29T13:17:26;25.80;43.90
3790;DHT22;1910;49.042;9.028;2023-05-29T13:19:51;27.40;45.50
3790;DHT22;1910;49.042;9.028;2023-05-29T13:36:57;26.00;39.50
3790;DHT22;1910;49.042;9.028;2023-05-29T13:46:40;26.30;38.70
3790;DHT22;1910;49.042;9.028;2023-05-29T13:51:34;26.10;37.50
3790;DHT22;1910;49.042;9.028;2023-05-29T13:54:02;26.00;39.30
3790;DHT22;1910;49.042;9.028;2023-05-29T14:01:20;25.80;38.10
3790;DHT22;1910;49.042;9.028;2023-05-29T14:06:12;26.00;39.00
3790;DHT22;1910;49.042;9.028;2023-05-29T14:15:56;26.00;38.60
3790;DHT22;1910;49.042;9.028;2023-05-29T14:23:17;26.20;39.10
3790;DHT22;1910;49.042;9.028;2023-05-29T14:28:08;26.10;38.40
3790;DHT22;1910;49.042;9.028;2023-05-29T14:33:01;25.80;38.90
3790;DHT22;1910;49.042;9.028;2023-05-29T14:42:44;26.00;38.30
3790;DHT22;1910;49.042;9.028;2023-05-29T14:45:10;26.10;38.80
3790;DHT22;1910;49.042;9.028;2023-05-29T15:19:14;26.00;39.50
3790;DHT22;1910;49.042;9.028;2023-05-29T15:21:39;26.10;39.70
3790;DHT22;1910;49.042;9.028;2023-05-29T15:24:05;26.10;39.60
3790;DHT22;1910;49.042;9.028;2023-05-29T15:31:22;25.80;39.70
3790;DHT22;1910;49.042;9.028;2023-05-29T15:36:14;25.70;38.80
3790;DHT22;1910;49.042;9.028;2023-05-29T15:41:12;25.90;39.70
3790;DHT22;1910;49.042;9.028;2023-05-29T16:15:17;25.90;41.10
3790;DHT22;1910;49.042;9.028;2023-05-29T16:20:10;25.80;41.70
3790;DHT22;1910;49.042;9.028;2023-05-29T16:25:03;25.90;41.30
3790;DHT22;1910;49.042;9.028;2023-05-29T16:32:22;25.60;41.80
3790;DHT22;1910;49.042;9.028;2023-05-29T16:37:13;25.70;41.70
3790;DHT22;1910;49.042;9.028;2023-05-29T16:39:39;25.60;41.60
3790;DHT22;1910;49.042;9.028;2023-05-29T16:42:06;25.50;40.80
3790;DHT22;1910;49.042;9.028;2023-05-29T16:46:58;25.40;41.80
3790;DHT22;1910;49.042;9.028;2023-05-29T16:49:24;25.40;43.20
3790;DHT22;1910;49.042;9.028;2023-05-29T16:51:51;25.30;41.70
3790;DHT22;1910;49.042;9.028;2023-05-29T16:54:16;25.20;41.90
3790;DHT22;1910;49.042;9.028;2023-05-29T16:59:08;25.10;42.30
3790;DHT22;1910;49.042;9.028;2023-05-29T17:21:01;25.10;40.30
3790;DHT22;1910;49.042;9.028;2023-05-29T17:28:20;25.00;40.30
3790;DHT22;1910;49.042;9.028;2023-05-29T17:42:55;24.40;40.00
3790;DHT22;1910;49.042;9.028;2023-05-29T17:45:21;24.40;41.80
3790;DHT22;1910;49.042;9.028;2023-05-29T17:47:46;25.00;42.20
3790;DHT22;1910;49.042;9.028;2023-05-29T17:50:12;24.50;42.90
3790;DHT22;1910;49.042;9.028;2023-05-29T17:52:37;24.30;42.10
3790;DHT22;1910;49.042;9.028;2023-05-29T17:55:09;24.30;42.30
3790;DHT22;1910;49.042;9.028;2023-05-29T17:57:34;24.10;41.80
3790;DHT22;1910;49.042;9.028;2023-05-29T18:00:00;24.00;42.20
3790;DHT22;1910;49.042;9.028;2023-05-29T18:46:15;22.10;47.20
3790;DHT22;1910;49.042;9.028;2023-05-29T18:48:40;22.10;49.70
3790;DHT22;1910;49.042;9.028;2023-05-29T18:55:58;21.70;50.60
3790;DHT22;1910;49.042;9.028;2023-05-29T19:00:50;21.20;53.80
3790;DHT22;1910;49.042;9.028;2023-05-29T19:08:09;20.40;57.00
3790;DHT22;1910;49.042;9.028;2023-05-29T19:10:36;20.40;57.80
3790;DHT22;1910;49.042;9.028;2023-05-29T19:17:54;19.60;59.50
3790;DHT22;1910;49.042;9.028;2023-05-29T19:22:53;19.10;63.50
3790;DHT22;1910;49.042;9.028;2023-05-29T19:25:18;19.10;64.20
3790;DHT22;1910;49.042;9.028;2023-05-29T19:27:44;19.00;65.00
3790;DHT22;1910;49.042;9.028;2023-05-29T19:30:11;18.80;65.30
3790;DHT22;1910;49.042;9.028;2023-05-29T19:32:37;18.50;67.50
3790;DHT22;1910;49.042;9.028;2023-05-29T19:35:03;18.40;68.50
3790;DHT22;1910;49.042;9.028;2023-05-29T19:37:30;18.30;68.80
3790;DHT22;1910;49.042;9.028;2023-05-29T19:39:55;18.20;70.10
3790;DHT22;1910;49.042;9.028;2023-05-29T19:42:24;18.00;70.50
3790;DHT22;1910;49.042;9.028;2023-05-29T19:44:52;18.00;71.20
3790;DHT22;1910;49.042;9.028;2023-05-29T19:47:17;17.90;72.40
3790;DHT22;1910;49.042;9.028;2023-05-29T19:49:43;17.80;73.40
3790;DHT22;1910;49.042;9.028;2023-05-29T19:52:08;18.20;75.70
3790;DHT22;1910;49.042;9.028;2023-05-29T20:01:54;17.30;80.10
3790;DHT22;1910;49.042;9.028;2023-05-29T20:04:20;17.20;80.90
3790;DHT22;1910;49.042;9.028;2023-05-29T20:06:45;17.20;80.70
3790;DHT22;1910;49.042;9.028;2023-05-29T20:11:38;17.10;81.00
3790;DHT22;1910;49.042;9.028;2023-05-29T20:14:04;17.10;82.80
3790;DHT22;1910;49.042;9.028;2023-05-29T20:16:29;17.00;83.60
3790;DHT22;1910;49.042;9.028;2023-05-29T20:18:55;17.00;84.90
3790;DHT22;1910;49.042;9.028;2023-05-29T20:21:20;17.00;85.40
3790;DHT22;1910;49.042;9.028;2023-05-29T20:23:47;16.90;88.10
3790;DHT22;1910;49.042;9.028;2023-05-29T20:26:13;16.90;86.70
3790;DHT22;1910;49.042;9.028;2023-05-29T20:31:05;17.00;87.40
3790;DHT22;1910;49.042;9.028;2023-05-29T20:33:30;17.00;89.30
3790;DHT22;1910;49.042;9.028;2023-05-29T20:35:56;17.10;85.40
3790;DHT22;1910;49.042;9.028;2023-05-29T20:40:49;17.50;82.90
3790;DHT22;1910;49.042;9.028;2023-05-29T20:50:40;17.50;85.50
3790;DHT22;1910;49.042;9.028;2023-05-29T20:53:05;17.50;84.30
3790;DHT22;1910;49.042;9.028;2023-05-29T20:55:31;17.50;84.00
3790;DHT22;1910;49.042;9.028;2023-05-29T21:02:50;17.50;84.70
3790;DHT22;1910;49.042;9.028;2023-05-29T21:05:16;17.40;87.80
3790;DHT22;1910;49.042;9.028;2023-05-29T21:07:42;17.30;87.90
3790;DHT22;1910;49.042;9.028;2023-05-29T21:10:08;17.10;88.50
3790;DHT22;1910;49.042;9.028;2023-05-29T21:12:34;17.20;87.70
3790;DHT22;1910;49.042;9.028;2023-05-29T21:19:53;17.40;86.70
3790;DHT22;1910;49.042;9.028;2023-05-29T21:24:45;17.50;86.60
3790;DHT22;1910;49.042;9.028;2023-05-29T21:27:11;17.50;87.70
3790;DHT22;1910;49.042;9.028;2023-05-29T21:32:04;17.40;87.10
3790;DHT22;1910;49.042;9.028;2023-05-29T21:34:30;17.40;87.30
3790;DHT22;1910;49.042;9.028;2023-05-29T21:39:24;17.50;87.30
3790;DHT22;1910;49.042;9.028;2023-05-29T21:44:17;17.50;87.30
3790;DHT22;1910;49.042;9.028;2023-05-29T21:46:43;17.40;88.40
3790;DHT22;1910;49.042;9.028;2023-05-29T21:49:09;17.30;88.90
3790;DHT22;1910;49.042;9.028;2023-05-29T21:51:34;17.40;89.10
3790;DHT22;1910;49.042;9.028;2023-05-29T21:58:55;17.30;90.00
3790;DHT22;1910;49.042;9.028;2023-05-29T22:01:21;17.30;90.00
3790;DHT22;1910;49.042;9.028;2023-05-29T22:03:57;17.30;90.40
3790;DHT22;1910;49.042;9.028;2023-05-29T22:06:28;17.00;90.70
3790;DHT22;1910;49.042;9.028;2023-05-29T22:21:07;16.50;93.00
3790;DHT22;1910;49.042;9.028;2023-05-29T22:23:34;16.50;93.60
3790;DHT22;1910;49.042;9.028;2023-05-29T22:26:01;16.50;93.80
3790;DHT22;1910;49.042;9.028;2023-05-29T22:28:27;16.50;93.90
3790;DHT22;1910;49.042;9.028;2023-05-29T22:30:54;16.50;94.00
3790;DHT22;1910;49.042;9.028;2023-05-29T22:33:19;16.50;94.40
3790;DHT22;1910;49.042;9.028;2023-05-29T22:35:46;16.50;94.60
3790;DHT22;1910;49.042;9.028;2023-05-29T22:38:12;16.50;94.60
3790;DHT22;1910;49.042;9.028;2023-05-29T22:40:37;16.50;94.90
3790;DHT22;1910;49.042;9.028;2023-05-29T22:43:03;16.50;95.30
3790;DHT22;1910;49.042;9.028;2023-05-29T22:45:29;16.50;95.50
3790;DHT22;1910;49.042;9.028;2023-05-29T22:47:56;16.40;95.60
3790;DHT22;1910;49.042;9.028;2023-05-29T22:50:22;16.40;95.90
3790;DHT22;1910;49.042;9.028;2023-05-29T22:52:47;16.40;96.20
3790;DHT22;1910;49.042;9.028;2023-05-29T22:55:13;16.40;96.60
3790;DHT22;1910;49.042;9.028;2023-05-29T23:00:06;16.40;97.00
3790;DHT22;1910;49.042;9.028;2023-05-29T23:02:34;16.30;97.60
3790;DHT22;1910;49.042;9.028;2023-05-29T23:05:01;16.20;97.90
3790;DHT22;1910;49.042;9.028;2023-05-29T23:07:27;16.20;98.30
3790;DHT22;1910;49.042;9.028;2023-05-29T23:09:52;16.10;98.40
3790;DHT22;1910;49.042;9.028;2023-05-29T23:12:18;16.00;99.90
3790;DHT22;1910;49.042;9.028;2023-05-29T23:14:44;15.80;99.90
3790;DHT22;1910;49.042;9.028;2023-05-29T23:17:10;15.70;99.90
3790;DHT22;1910;49.042;9.028;2023-05-29T23:22:03;15.40;99.90
3790;DHT22;1910;49.042;9.028;2023-05-29T23:24:28;15.30;99.90
3790;DHT22;1910;49.042;9.028;2023-05-29T23:26:54;15.40;99.90
3790;DHT22;1910;49.042;9.028;2023-05-29T23:29:20;15.50;99.90
3790;DHT22;1910;49.042;9.028;2023-05-29T23:31:45;15.50;99.90
3790;DHT22;1910;49.042;9.028;2023-05-29T23:34:11;15.50;99.90
3790;DHT22;1910;49.042;9.028;2023-05-29T23:43:56;15.20;99.90
3790;DHT22;1910;49.042;9.028;2023-05-29T23:46:21;15.10;99.90
3790;DHT22;1910;49.042;9.028;2023-05-29T23:48:47;15.00;99.90
3790;DHT22;1910;49.042;9.028;2023-05-29T23:51:14;14.90;99.90
3790;DHT22;1910;49.042;9.028;2023-05-29T23:56:06;14.60;99.90
